createdAt,value
2023-01-28T00:01:17.840Z,6.09
2023-01-28T00:03:44.482Z,6.10
2023-01-28T00:06:15.274Z,6.35
2023-01-28T00:08:42.259Z,6.14
2023-01-28T00:11:11.386Z,6.15
2023-01-28T00:13:38.223Z,6.13
2023-01-28T00:16:06.268Z,6.37
2023-01-28T00:18:33.068Z,6.41
2023-01-28T00:21:04.538Z,6.18
2023-01-28T00:23:36.576Z,6.17
2023-01-28T00:26:06.312Z,6.11
2023-01-28T00:28:33.149Z,6.09
2023-01-28T00:30:59.804Z,6.33
2023-01-28T00:33:26.404Z,6.10
2023-01-28T00:36:03.671Z,6.15
2023-01-28T00:38:30.300Z,6.07
2023-01-28T00:40:56.860Z,6.07
2023-01-28T00:43:23.386Z,6.04
2023-01-28T00:45:50.420Z,6.04
2023-01-28T00:48:17.285Z,6.04
2023-01-28T00:50:45.680Z,6.04
2023-01-28T00:53:12.325Z,6.03
2023-01-28T00:55:39.042Z,6.03
2023-01-28T00:58:05.641Z,6.28
2023-01-28T01:00:32.233Z,6.04
2023-01-28T01:02:59.581Z,6.02
2023-01-28T01:05:26.162Z,6.01
2023-01-28T01:07:52.877Z,6.01
2023-01-28T01:10:19.932Z,6.00
2023-01-28T01:12:48.288Z,6.01
2023-01-28T01:15:15.755Z,6.02
2023-01-28T01:17:44.645Z,6.02
2023-01-28T01:20:17.340Z,6.07
2023-01-28T01:22:43.881Z,6.03
2023-01-28T01:25:11.646Z,6.05
2023-01-28T01:27:38.236Z,6.04
2023-01-28T01:30:05.298Z,6.04
2023-01-28T01:32:32.821Z,6.01
2023-01-28T01:34:59.388Z,6.00
2023-01-28T01:37:25.960Z,6.00
2023-01-28T01:39:52.678Z,5.99
2023-01-28T01:42:19.558Z,5.98
2023-01-28T01:45:00.251Z,6.03
2023-01-28T01:47:35.698Z,5.92
2023-01-28T01:50:10.671Z,5.92
2023-01-28T01:52:37.286Z,5.85
2023-01-28T01:55:09.472Z,5.85
2023-01-28T01:57:37.449Z,5.80
2023-01-28T02:00:06.663Z,5.78
2023-01-28T02:02:38.438Z,5.78
2023-01-28T02:05:07.067Z,5.73
2023-01-28T02:07:34.371Z,5.70
2023-01-28T02:10:00.923Z,5.69
2023-01-28T02:12:33.846Z,5.73
2023-01-28T02:15:05.400Z,5.71
2023-01-28T02:17:32.431Z,5.66
2023-01-28T02:20:06.234Z,5.70
2023-01-28T02:22:44.991Z,5.69
2023-01-28T02:25:38.982Z,5.70
2023-01-28T02:28:17.632Z,5.67
2023-01-28T02:30:59.861Z,5.69
2023-01-28T02:33:51.419Z,5.72
2023-01-28T02:36:28.603Z,5.61
2023-01-28T02:38:57.695Z,5.61
2023-01-28T02:41:31.652Z,5.62
2023-01-28T02:43:58.189Z,5.57
2023-01-28T02:46:46.446Z,5.62
2023-01-28T02:49:21.714Z,5.62
2023-01-28T02:52:47.177Z,5.68
2023-01-28T02:55:42.848Z,5.64
2023-01-28T02:58:09.284Z,5.57
2023-01-28T03:00:47.868Z,5.63
2023-01-28T03:03:21.715Z,5.61
2023-01-28T03:06:09.159Z,5.67
2023-01-28T03:09:11.716Z,5.66
2023-01-28T03:12:02.336Z,5.58
2023-01-28T03:14:51.271Z,5.58
2023-01-28T03:17:44.710Z,5.60
2023-01-28T03:20:31.351Z,5.55
2023-01-28T03:23:22.160Z,5.57
2023-01-28T03:26:08.876Z,5.56
2023-01-28T03:28:56.542Z,5.55
2023-01-28T03:31:42.987Z,5.57
2023-01-28T03:34:30.321Z,5.57
2023-01-28T03:36:57.145Z,5.58
2023-01-28T03:39:28.326Z,5.80
2023-01-28T03:42:00.781Z,5.66
2023-01-28T03:44:45.918Z,5.60
2023-01-28T03:47:12.585Z,5.58
2023-01-28T03:49:41.306Z,5.60
2023-01-28T03:52:08.560Z,5.59
2023-01-28T03:54:35.504Z,5.60
2023-01-28T03:57:02.565Z,5.61
2023-01-28T03:59:29.214Z,5.62
2023-01-28T04:01:55.872Z,5.62
2023-01-28T04:04:25.745Z,5.65
2023-01-28T04:06:53.060Z,5.63
2023-01-28T04:09:20.716Z,5.64
2023-01-28T04:11:48.130Z,5.64
2023-01-28T04:14:15.298Z,5.63
2023-01-28T04:16:42.784Z,5.64
2023-01-28T04:19:09.953Z,5.63
2023-01-28T04:21:36.486Z,5.62
2023-01-28T04:24:03.026Z,5.63
2023-01-28T17:27:03.068Z,5.16
2023-01-28T17:29:29.870Z,5.10
2023-01-28T17:31:56.325Z,5.29
2023-01-28T17:34:23.041Z,5.04
2023-01-28T17:36:49.488Z,5.23
2023-01-28T17:39:18.503Z,4.97
2023-01-28T17:41:47.621Z,4.91
2023-01-28T17:44:17.116Z,4.90
2023-01-28T17:46:43.605Z,4.83
2023-01-28T17:49:10.068Z,4.81
2023-01-28T17:51:36.813Z,4.78
2023-01-28T17:54:03.425Z,4.76
2023-01-28T17:56:31.217Z,4.74
2023-01-28T17:59:02.640Z,4.72
2023-01-28T18:01:30.153Z,4.65
2023-01-28T18:03:58.035Z,4.62
2023-01-28T18:06:24.760Z,4.57
2023-01-28T18:08:51.313Z,4.55
2023-01-28T18:11:19.511Z,4.52
2023-01-28T18:13:46.052Z,4.47
2023-01-28T18:16:17.235Z,4.46
2023-01-28T18:18:45.048Z,4.41
2023-01-28T18:21:22.731Z,4.47
2023-01-28T18:23:52.172Z,4.39
2023-01-28T18:26:18.785Z,4.33
2023-01-28T18:28:45.267Z,4.31
2023-01-28T18:31:11.887Z,4.29
2023-01-28T18:33:38.380Z,4.26
2023-01-28T18:36:06.191Z,4.24
2023-01-28T18:38:33.115Z,4.20
2023-01-28T18:40:59.575Z,4.17
2023-01-28T18:43:26.497Z,4.16
2023-01-28T18:45:53.015Z,4.12
2023-01-28T18:48:19.949Z,4.08
2023-01-28T18:50:51.179Z,4.07
2023-01-28T18:53:17.635Z,3.99
2023-01-28T18:55:44.834Z,3.95
2023-01-28T18:58:11.287Z,3.91
2023-01-28T19:00:38.542Z,4.11
2023-01-28T19:03:05.128Z,3.86
2023-01-28T19:05:36.194Z,3.84
2023-01-28T19:11:02.582Z,3.70
2023-01-28T19:13:29.583Z,3.64
2023-01-28T19:15:56.267Z,3.85
2023-01-28T19:18:22.887Z,3.60
2023-01-28T19:20:49.375Z,3.57
2023-01-28T19:23:15.925Z,3.51
2023-01-28T19:25:42.487Z,3.49
2023-01-28T19:28:09.205Z,3.47
2023-01-28T19:30:36.853Z,3.44
2023-01-28T19:33:04.488Z,3.40
2023-01-28T19:35:31.048Z,3.38
2023-01-28T19:37:57.532Z,3.35
2023-01-28T19:40:24.024Z,3.34
2023-01-28T19:42:53.105Z,3.32
2023-01-28T19:45:20.339Z,3.26
2023-01-28T19:47:47.097Z,3.23
2023-01-28T19:50:14.269Z,3.20
2023-01-28T19:52:40.766Z,3.16
2023-01-28T19:55:08.085Z,3.14
2023-01-28T19:57:34.637Z,3.11
2023-01-28T20:00:01.170Z,3.10
2023-01-28T20:02:28.010Z,3.09
2023-01-28T20:05:00.574Z,3.28
2023-01-28T20:07:27.470Z,3.08
2023-01-28T20:09:53.934Z,3.04
2023-01-28T20:12:20.435Z,3.03
2023-01-28T20:14:47.051Z,3.00
2023-01-28T20:17:13.502Z,2.99
2023-01-28T20:19:40.130Z,2.97
2023-01-28T20:22:06.630Z,2.96
2023-01-28T20:24:33.151Z,2.95
2023-01-28T20:26:59.915Z,2.93
2023-01-28T20:29:26.364Z,2.89
2023-01-28T20:32:13.745Z,2.88
2023-01-28T20:34:42.398Z,2.85
2023-01-28T20:37:11.788Z,2.83
2023-01-28T20:39:38.347Z,2.80
2023-01-28T20:42:06.346Z,2.80
2023-01-28T20:44:32.855Z,2.76
2023-01-28T20:46:59.330Z,2.77
2023-01-28T20:49:28.121Z,2.76
2023-01-28T20:51:54.856Z,2.73
2023-01-28T20:54:21.571Z,2.72
2023-01-28T20:56:52.845Z,2.74
2023-01-28T20:59:19.490Z,2.68
2023-01-28T21:01:46.542Z,2.67
2023-01-28T21:04:13.373Z,2.65
2023-01-28T21:06:42.727Z,2.87
2023-01-28T21:09:09.693Z,2.66
2023-01-28T21:11:36.170Z,2.62
2023-01-28T21:14:02.651Z,2.62
2023-01-28T21:16:29.134Z,2.60
2023-01-28T21:18:55.637Z,2.58
2023-01-28T21:21:25.363Z,2.58
2023-01-28T21:23:54.744Z,2.54
2023-01-28T21:26:21.758Z,2.54
2023-01-28T21:28:48.395Z,2.51
2023-01-28T21:31:17.983Z,2.51
2023-01-28T21:33:51.740Z,2.51
2023-01-28T21:36:19.335Z,2.44
2023-01-28T21:38:51.253Z,2.47
2023-01-28T21:41:17.712Z,2.43
2023-01-28T21:43:44.249Z,2.40
2023-01-28T21:46:10.759Z,2.40
2023-01-28T21:48:37.243Z,2.39
2023-01-28T21:51:26.289Z,2.37
2023-01-28T21:53:53.212Z,2.35
2023-01-28T21:56:19.705Z,2.33
2023-01-28T21:59:04.926Z,2.32
2023-01-28T22:01:31.416Z,2.30
2023-01-28T22:03:58.091Z,2.27
2023-01-28T22:06:24.662Z,2.27
2023-01-28T22:08:54.217Z,2.29
2023-01-28T22:11:21.170Z,2.26
2023-01-28T22:13:48.184Z,2.24
2023-01-28T22:16:14.751Z,2.24
2023-01-28T22:18:41.313Z,2.24
2023-01-28T22:21:11.067Z,2.24
2023-01-28T22:23:37.514Z,2.20
2023-01-28T22:26:04.059Z,2.22
2023-01-28T22:28:31.084Z,2.20
2023-01-28T22:31:15.987Z,2.24
2023-01-28T22:33:43.101Z,2.18
2023-01-28T22:36:13.960Z,2.19
2023-01-28T22:38:42.668Z,2.17
2023-01-28T22:41:12.300Z,2.16
2023-01-28T22:43:39.296Z,2.14
2023-01-28T22:46:06.184Z,2.13
2023-01-28T22:48:36.052Z,2.15
2023-01-28T22:51:04.805Z,2.14
2023-01-28T22:53:31.323Z,2.12
2023-01-28T22:55:57.966Z,2.13
2023-01-28T22:58:24.690Z,2.14
2023-01-28T23:00:51.199Z,2.14
2023-01-28T23:03:17.682Z,2.13
2023-01-28T23:05:44.870Z,2.14
2023-01-28T23:08:11.442Z,2.15
2023-01-28T23:10:50.863Z,2.23
2023-01-28T23:13:20.038Z,2.17
2023-01-28T23:16:06.844Z,2.14
2023-01-28T23:18:52.427Z,2.16
2023-01-28T23:21:40.052Z,2.17
2023-01-28T23:24:21.620Z,2.22
2023-01-28T23:26:53.686Z,2.21
2023-01-28T23:29:23.801Z,2.17
2023-01-28T23:31:54.023Z,2.19
2023-01-28T23:34:21.475Z,2.18
2023-01-28T23:36:48.980Z,2.18
2023-01-28T23:39:15.668Z,2.19
2023-01-28T23:41:42.234Z,2.20
2023-01-28T23:44:08.787Z,2.21
2023-01-28T23:46:39.698Z,2.22
2023-01-28T23:49:08.817Z,2.23
2023-01-28T23:51:35.605Z,2.23
2023-01-28T23:54:02.171Z,2.44
2023-01-28T23:56:28.739Z,2.26
2023-01-28T23:58:56.951Z,2.24
